Liguori, MO (63057)

10:21 CDT le 28 septembre 2016 (GMT -0500)
Olde Mill Estates | | Change Station

Alt. 568 ft 38.43 °N, 90.57 °W | Updated 1 minute ago

Scattered Clouds
Nuages épars
63.9 ° F
Paraît 63.9 ° F
N
4.2
Vent Variable Vent de Sud
Gusts 7.8 mph

Aujourd'hui
Haut(e) -- | Bas -- ° F
--% Risque de précip.
Hier
Haut(e) -- | Bas -- ° F
Precip. -- pouce
Pression 29.91 pouce
Visibilité 10.0 Miles terrestres
Nuages Nuages épars 11000 ft
Point de rosée 49 ° F
Humidité 58%
Précipitations 0.00 pouce
Profondeur de la couche neigeuse Non disponible.
6:55 AM 6:48 PM
Lune descendante, 5% visible
METAR KSUS 281454Z 01009KT 10SM SCT110 17/08 A2991 RMK AO2 SLP126 T01720083 53031
Pression 29.91 pouce
Visibilité 10.0 Miles terrestres
Nuages Nuages épars 11000 ft
Point de rosée 49 ° F
Humidité 58%
Précipitations 0.00 pouce
Profondeur de la couche neigeuse Non disponible.
6:55 AM 6:48 PM
Lune descendante, 5% visible
METAR KSUS 281454Z 01009KT 10SM SCT110 17/08 A2991 RMK AO2 SLP126 T01720083 53031

10-Day Weather Forecast

Almanac

Astronomie

Sep. 28, 2016 Lever Coucher
Temps réel
Crépuscule civil
Crépuscule nautique
Crépuscule astronomique
Lune
Durée de lumière visible
Longueur du jour
Tomorrow will be .
, % of the Moon is Illuminated

Extrêmes aujourd'hui

State Highs State Lows

Community

WunderPhotos

Upload Photos

1,942,279 Photos téléchargées !

WunderBlog® & News

Nearby

Qualité de l'air

  Qualité de l'air Indice de la qualité de l'air Polluant
Not available.

Épaisseur de neige

Station Depth Altitude

Activité sismique

Ville Distance Mag. Time & Date
Minimum magnitude displayed is 2.5.

Températures des eaux côtières

Lieu Température

Stations

Stations météo à proximité

Emplacement de la station Température Refroidissement éolien Point de rosée Humidité Vent Precip. Alt. Mise à jour Type
                   

Watches & Warnings

There are currently no watches in effect.